Time;durP1;ratioP1;P1;durP2;ratioP2;P2;SDS_P1;SDS_P2;PMS_P1;PMS_P2;Temp;Humidity;BMP_temperature;BMP_pressure;BME280_temperature;BME280_humidity;BME280_pressure;Samples;Min_cycle;Max_cycle;Signal;HPM_P1;HPM_P2
2022/12/04 00:02:06;;;;;;;243.95;93.53;;;;;;;-0.87;100.00;101718.84;5053071;28;20044;-49
2022/12/04 00:04:31;;;;;;;249.07;94.28;;;;;;;-0.87;100.00;101718.84;5053712;28;20133;-44
2022/12/04 00:06:57;;;;;;;241.88;92.95;;;;;;;-0.89;100.00;101711.13;5053917;28;20021;-47
2022/12/04 00:09:22;;;;;;;251.20;93.15;;;;;;;-0.87;100.00;101708.72;5053106;28;20075;-47
2022/12/04 00:11:47;;;;;;;253.15;91.63;;;;;;;-0.88;100.00;101706.94;5053639;28;20480;-48
2022/12/04 00:14:13;;;;;;;253.90;95.15;;;;;;;-0.89;100.00;101702.63;5053927;28;20029;-48
2022/12/04 00:16:38;;;;;;;246.43;94.25;;;;;;;-0.91;100.00;101702.50;5052684;28;20036;-45
2022/12/04 00:19:04;;;;;;;250.10;92.35;;;;;;;-0.90;100.00;101704.28;5053552;28;20108;-49
2022/12/04 00:21:29;;;;;;;262.67;95.03;;;;;;;-0.92;100.00;101693.13;5053718;28;20037;-48
2022/12/04 00:23:54;;;;;;;261.13;96.97;;;;;;;-0.93;100.00;101693.91;5052355;28;20016;-46
2022/12/04 00:26:26;;;;;;;260.30;95.22;;;;;;;-0.94;100.00;101697.16;5053970;28;20029;-48
2022/12/04 00:28:52;;;;;;;271.17;101.25;;;;;;;-0.96;100.00;101698.66;5053465;28;20086;-47
2022/12/04 00:31:21;;;;;;;248.02;90.78;;;;;;;-0.97;100.00;101693.47;5052887;28;20057;-46
2022/12/04 00:33:46;;;;;;;259.17;96.13;;;;;;;-0.97;100.00;101696.00;5053269;28;20021;-45
2022/12/04 00:36:14;;;;;;;260.45;95.80;;;;;;;-0.97;100.00;101696.00;5052378;28;20104;-48
2022/12/04 00:38:41;;;;;;;262.15;99.30;;;;;;;-0.95;100.00;101694.50;5053280;28;20025;-47
2022/12/04 00:41:08;;;;;;;259.02;96.75;;;;;;;-0.96;100.00;101701.19;5053559;28;20074;-47
2022/12/04 00:43:33;;;;;;;267.50;93.93;;;;;;;-0.96;100.00;101697.78;5052306;28;20017;-47
2022/12/04 00:45:59;;;;;;;248.82;93.88;;;;;;;-0.96;100.00;101691.06;5053362;28;20548;-47
2022/12/04 00:48:24;;;;;;;249.52;94.18;;;;;;;-0.94;100.00;101689.56;5053165;28;20029;-47
2022/12/04 00:50:50;;;;;;;248.40;94.07;;;;;;;-0.95;100.00;101689.44;5051875;28;20092;-48
2022/12/04 00:53:15;;;;;;;252.90;94.88;;;;;;;-0.96;100.00;101687.66;5053223;28;20350;-45
2022/12/04 00:55:42;;;;;;;260.38;98.00;;;;;;;-0.96;100.00;101687.66;5052777;28;20020;-47
2022/12/04 00:58:07;;;;;;;259.75;95.22;;;;;;;-0.97;100.00;101685.88;5052163;28;20431;-47
2022/12/04 01:00:34;;;;;;;259.75;97.25;;;;;;;-0.97;100.00;101698.53;5052706;28;20477;-49
2022/12/04 01:03:00;;;;;;;245.27;94.20;;;;;;;-0.96;100.00;101690.19;5052768;28;20374;-44
2022/12/04 01:05:25;;;;;;;260.58;96.70;;;;;;;-0.97;100.00;101688.41;5052039;28;20036;-47
2022/12/04 01:07:51;;;;;;;273.60;98.93;;;;;;;-0.97;100.00;101690.94;5052805;28;20345;-48
2022/12/04 01:10:17;;;;;;;257.00;95.82;;;;;;;-0.92;100.00;101693.13;5052905;28;20017;-47
2022/12/04 01:12:42;;;;;;;255.25;96.00;;;;;;;-0.94;100.00;101692.09;5051850;28;20106;-45
2022/12/04 01:15:08;;;;;;;254.48;94.30;;;;;;;-0.95;100.00;101700.44;5053199;28;20028;-47
2022/12/04 01:17:33;;;;;;;250.23;92.47;;;;;;;-0.94;100.00;101696.25;5052428;28;20423;-48
2022/12/04 01:19:58;;;;;;;241.27;95.13;;;;;;;-0.94;100.00;101701.31;5051882;28;20084;-46
2022/12/04 01:22:23;;;;;;;244.98;90.20;;;;;;;-0.95;100.00;101695.38;5052691;28;20021;-46
2022/12/04 01:24:49;;;;;;;234.02;90.75;;;;;;;-0.95;100.00;101700.44;5052470;28;20430;-47
2022/12/04 01:27:14;;;;;;;244.55;94.57;;;;;;;-0.95;100.00;101700.44;5051836;28;20041;-46
2022/12/04 01:29:39;;;;;;;243.88;96.05;;;;;;;-0.94;100.00;101706.38;5052346;28;20468;-47
2022/12/04 01:32:05;;;;;;;242.30;92.70;;;;;;;-0.95;100.00;101697.03;5052652;28;20029;-48
2022/12/04 01:34:30;;;;;;;257.42;95.00;;;;;;;-0.93;100.00;101703.09;5051643;28;20028;-44
2022/12/04 01:36:55;;;;;;;253.50;94.30;;;;;;;-0.93;100.00;101703.09;5052816;28;20040;-47
2022/12/04 01:39:21;;;;;;;255.30;95.70;;;;;;;-0.94;100.00;101701.31;5054432;28;20075;-47
2022/12/04 01:41:46;;;;;;;241.70;93.55;;;;;;;-0.93;100.00;101698.97;5056501;28;20077;-47
2022/12/04 01:44:18;;;;;;;254.95;95.60;;;;;;;-0.93;100.00;101708.16;5056711;28;20022;-44
2022/12/04 01:46:46;;;;;;;251.32;95.82;;;;;;;-0.94;100.00;101702.22;5055658;28;20032;-46
2022/12/04 01:49:21;;;;;;;244.00;92.47;;;;;;;-0.93;100.00;101696.44;5056518;28;20067;-47
2022/12/04 01:51:50;;;;;;;243.98;94.55;;;;;;;-0.95;100.00;101690.31;5056167;28;20481;-47
2022/12/04 01:54:38;;;;;;;255.07;98.40;;;;;;;-0.90;100.00;101688.22;5055739;28;20029;-46
2022/12/04 01:57:13;;;;;;;246.98;96.13;;;;;;;-0.94;100.00;101686.13;5056088;28;20064;-47
2022/12/04 02:00:04;;;;;;;264.48;100.75;;;;;;;-0.96;100.00;101680.94;5055923;28;20048;-46
2022/12/04 02:02:33;;;;;;;258.90;98.35;;;;;;;-0.95;100.00;101684.38;5055092;28;20052;-48
2022/12/04 02:05:04;;;;;;;249.18;95.05;;;;;;;-0.95;100.00;101687.78;5056159;28;20035;-48
2022/12/04 02:07:30;;;;;;;254.20;96.82;;;;;;;-0.95;100.00;101689.44;5055466;28;20055;-49
2022/12/04 02:09:55;;;;;;;256.48;97.93;;;;;;;-0.98;100.00;101682.47;5055815;28;20427;-47
2022/12/04 02:12:31;;;;;;;253.95;97.60;;;;;;;-0.96;100.00;101687.66;5055987;28;20028;-47
2022/12/04 02:15:08;;;;;;;270.35;99.65;;;;;;;-0.97;100.00;101688.41;5055234;28;20484;-48
2022/12/04 02:17:42;;;;;;;264.92;102.72;;;;;;;-0.96;100.00;101685.13;5055636;28;20445;-47
2022/12/04 02:20:13;;;;;;;270.65;101.82;;;;;;;-0.97;100.00;101685.88;5055939;28;20523;-48
2022/12/04 02:22:44;;;;;;;256.52;96.38;;;;;;;-0.97;100.00;101681.69;5054794;28;20124;-49
2022/12/04 02:25:56;;;;;;;259.45;100.88;;;;;;;-0.94;100.00;101681.06;5056087;28;20020;-47
2022/12/04 02:28:36;;;;;;;257.27;101.65;;;;;;;-0.95;100.00;101689.44;5055105;28;20040;-47
2022/12/04 02:31:06;;;;;;;269.05;102.68;;;;;;;-0.97;100.00;101675.75;5055782;28;20083;-48
2022/12/04 02:33:51;;;;;;;259.10;100.93;;;;;;;-0.92;100.00;101689.72;5055362;28;20439;-45
2022/12/04 02:36:22;;;;;;;268.30;100.93;;;;;;;-0.95;100.00;101685.25;5054993;28;20037;-48
2022/12/04 02:39:08;;;;;;;265.63;100.05;;;;;;;-0.92;100.00;101689.72;5055210;28;20457;-45
2022/12/04 02:41:40;;;;;;;269.15;102.95;;;;;;;-0.95;100.00;101684.38;5055452;28;20027;-48
2022/12/04 02:44:34;;;;;;;261.25;99.70;;;;;;;-0.92;100.00;101689.72;5054901;28;20032;-48
2022/12/04 02:47:03;;;;;;;261.48;102.03;;;;;;;-0.94;100.00;101681.06;5055466;28;20159;-46
2022/12/04 02:49:39;;;;;;;271.95;102.35;;;;;;;-0.92;100.00;101687.19;5054433;28;20025;-48
2022/12/04 02:52:09;;;;;;;268.75;102.85;;;;;;;-0.95;100.00;101679.31;5055336;28;20517;-48
2022/12/04 02:54:41;;;;;;;272.45;105.47;;;;;;;-0.96;100.00;101677.53;5055177;28;20024;-44
2022/12/04 02:57:12;;;;;;;265.20;103.88;;;;;;;-0.97;100.00;101671.56;5054566;28;20025;-48
2022/12/04 02:59:43;;;;;;;272.40;103.65;;;;;;;-0.97;100.00;101665.63;5054973;28;20032;-48
2022/12/04 03:02:36;;;;;;;277.83;107.32;;;;;;;-0.96;100.00;101662.34;5054950;28;20095;-46
2022/12/04 03:05:08;;;;;;;277.40;101.50;;;;;;;-0.97;100.00;101660.56;5054073;28;20036;-47
2022/12/04 03:07:38;;;;;;;276.95;105.88;;;;;;;-0.97;100.00;101660.56;5054762;28;20118;-48
2022/12/04 03:10:11;;;;;;;271.52;103.63;;;;;;;-0.97;100.00;101663.97;5055148;28;20025;-48
2022/12/04 03:12:52;;;;;;;279.25;106.15;;;;;;;-0.97;100.00;101661.44;5053818;28;20021;-46
2022/12/04 03:15:30;;;;;;;271.25;102.85;;;;;;;-0.97;100.00;101663.97;5055057;28;20032;-47
2022/12/04 03:18:13;;;;;;;275.15;105.90;;;;;;;-0.96;100.00;101667.41;5053982;28;20029;-48
2022/12/04 03:20:40;;;;;;;284.83;108.20;;;;;;;-0.98;100.00;101671.44;5054549;28;20040;-48
2022/12/04 03:23:12;;;;;;;278.38;106.57;;;;;;;-0.97;100.00;101670.69;5054770;28;20033;-47
2022/12/04 03:25:52;;;;;;;277.00;105.38;;;;;;;-0.97;100.00;101666.50;5053890;28;20021;-45
2022/12/04 03:28:26;;;;;;;276.50;108.00;;;;;;;-0.98;100.00;101671.44;5054972;28;20227;-46
2022/12/04 03:30:59;;;;;;;274.77;106.85;;;;;;;-0.97;100.00;101660.56;5054507;28;20123;-45
2022/12/04 03:33:33;;;;;;;277.20;106.70;;;;;;;-0.97;100.00;101665.63;5053837;28;20021;-48
2022/12/04 03:36:08;;;;;;;284.83;108.00;;;;;;;-0.96;100.00;101667.41;5054426;28;20362;-43
2022/12/04 03:38:50;;;;;;;290.75;109.28;;;;;;;-0.95;100.00;101664.16;5054272;28;20029;-43
2022/12/04 03:41:30;;;;;;;288.10;107.45;;;;;;;-0.95;100.00;101659.09;5053806;28;20025;-46
2022/12/04 03:44:16;;;;;;;288.10;108.35;;;;;;;-0.93;100.00;101662.63;5054170;28;20032;-45
2022/12/04 03:46:47;;;;;;;275.85;106.13;;;;;;;-0.95;100.00;101662.50;5053265;28;20475;-49
2022/12/04 03:49:22;;;;;;;289.75;108.18;;;;;;;-0.95;100.00;101664.16;5054484;28;20053;-47
2022/12/04 03:51:55;;;;;;;274.27;107.35;;;;;;;-0.96;100.00;101654.78;5054005;28;20029;-46
2022/12/04 03:54:33;;;;;;;286.67;108.95;;;;;;;-0.95;100.00;101652.38;5053374;28;20024;-48
2022/12/04 03:57:13;;;;;;;287.27;109.85;;;;;;;-0.95;100.00;101648.97;5054272;28;20051;-46
2022/12/04 03:59:57;;;;;;;273.60;106.13;;;;;;;-0.94;100.00;101649.09;5053860;28;20102;-47
2022/12/04 04:02:27;;;;;;;287.13;104.47;;;;;;;-0.95;100.00;101664.16;5052911;28;20053;-47
2022/12/04 04:04:56;;;;;;;286.10;110.47;;;;;;;-0.97;100.00;101650.44;5053607;28;20362;-49
2022/12/04 04:07:45;;;;;;;271.90;103.03;;;;;;;-0.93;100.00;101652.50;5053055;28;20898;-48
2022/12/04 04:10:14;;;;;;;291.23;107.18;;;;;;;-0.95;100.00;101654.03;5054025;28;20048;-47
2022/12/04 04:24:12;;;;;;;290.33;109.20;;;;;;;-0.92;100.00;101649.22;5053577;28;20041;-48
2022/12/04 04:26:39;;;;;;;279.02;106.85;;;;;;;-0.94;100.00;101656.69;5053580;28;20086;-48
2022/12/04 04:29:04;;;;;;;284.80;107.70;;;;;;;-0.93;100.00;101648.34;5052828;28;20029;-47
2022/12/04 04:31:41;;;;;;;290.42;108.90;;;;;;;-0.91;100.00;101645.94;5053374;28;20029;-47
2022/12/04 04:34:28;;;;;;;280.55;107.18;;;;;;;-0.86;100.00;101644.72;5053648;28;20041;-48
2022/12/04 04:37:19;;;;;;;284.65;109.18;;;;;;;-0.88;100.00;101651.25;5052293;28;20035;-47
2022/12/04 04:39:55;;;;;;;287.23;106.57;;;;;;;-0.87;100.00;101653.03;5052979;28;20469;-48
2022/12/04 04:42:32;;;;;;;294.33;109.93;;;;;;;-0.88;100.00;101643.66;5052436;28;20040;-47
2022/12/04 04:45:20;;;;;;;297.60;111.15;;;;;;;-0.81;100.00;101642.56;5053413;28;20109;-47
2022/12/04 04:47:52;;;;;;;283.23;108.60;;;;;;;-0.87;100.00;101655.56;5053135;28;20036;-47
2022/12/04 04:50:19;;;;;;;286.83;107.45;;;;;;;-0.87;100.00;101655.56;5052446;28;20028;-46
2022/12/04 04:52:48;;;;;;;300.08;108.53;;;;;;;-0.87;100.00;101651.41;5052740;28;20036;-47
2022/12/04 04:55:16;;;;;;;292.13;108.45;;;;;;;-0.86;100.00;101649.78;5053348;28;20092;-48
2022/12/04 04:57:41;;;;;;;284.25;105.63;;;;;;;-0.86;100.00;101652.31;5051707;28;20418;-48
2022/12/04 05:00:10;;;;;;;282.55;106.55;;;;;;;-0.87;100.00;101651.41;5053132;28;20021;-47
2022/12/04 05:02:36;;;;;;;281.88;106.97;;;;;;;-0.86;100.00;101650.66;5052327;28;20045;-47
2022/12/04 05:05:01;;;;;;;284.88;109.60;;;;;;;-0.84;100.00;101648.25;5052125;28;20017;-48
2022/12/04 05:07:26;;;;;;;291.55;113.22;;;;;;;-0.84;100.00;101655.84;5053075;28;20056;-46
2022/12/04 05:09:52;;;;;;;285.00;107.25;;;;;;;-0.81;100.00;101657.75;5052535;28;20486;-47
2022/12/04 05:12:17;;;;;;;287.10;106.93;;;;;;;-0.82;100.00;101656.88;5051943;28;20029;-43
2022/12/04 05:14:42;;;;;;;292.55;107.90;;;;;;;-0.81;100.00;101657.75;5051980;28;20017;-47
2022/12/04 05:17:08;;;;;;;283.63;109.57;;;;;;;-0.79;100.00;101652.06;5052717;28;20029;-43
2022/12/04 05:19:52;;;;;;;287.08;108.97;;;;;;;-0.80;100.00;101657.91;5051618;28;20028;-46
2022/12/04 05:22:19;;;;;;;293.55;108.28;;;;;;;-0.77;100.00;101662.34;5052977;28;20040;-47
2022/12/04 05:24:44;;;;;;;283.27;104.57;;;;;;;-0.78;100.00;101663.09;5051747;28;20075;-46
2022/12/04 05:27:10;;;;;;;284.20;108.20;;;;;;;-0.80;100.00;101665.50;5052838;28;20021;-48
2022/12/04 05:29:35;;;;;;;290.52;109.88;;;;;;;-0.79;100.00;101662.19;5052333;28;20021;-47
2022/12/04 05:32:00;;;;;;;294.85;109.35;;;;;;;-0.78;100.00;101660.56;5051740;28;20033;-47
2022/12/04 05:34:26;;;;;;;296.83;108.03;;;;;;;-0.79;100.00;101662.19;5052538;28;20037;-46
2022/12/04 05:36:51;;;;;;;299.42;109.53;;;;;;;-0.80;100.00;101657.00;5052294;28;20029;-48
2022/12/04 05:39:16;;;;;;;280.98;104.95;;;;;;;-0.78;100.00;101658.91;5051879;28;20025;-46
2022/12/04 05:41:41;;;;;;;291.38;107.00;;;;;;;-0.80;100.00;101655.38;5052191;28;20111;-47
2022/12/04 05:44:07;;;;;;;286.88;107.13;;;;;;;-0.78;100.00;101655.50;5052524;28;20476;-47
2022/12/04 05:46:32;;;;;;;289.65;107.45;;;;;;;-0.79;100.00;101652.06;5051336;28;20021;-47
2022/12/04 05:48:57;;;;;;;290.58;109.35;;;;;;;-0.79;100.00;101647.00;5052416;28;20017;-47
2022/12/04 05:51:22;;;;;;;276.15;104.18;;;;;;;-0.79;100.00;101644.47;5052540;28;20025;-48
2022/12/04 05:53:50;;;;;;;295.98;109.07;;;;;;;-0.79;100.00;101647.00;5051444;28;20032;-47
2022/12/04 05:56:15;;;;;;;296.90;109.13;;;;;;;-0.79;100.00;101643.59;5052537;28;20129;-46
2022/12/04 05:58:41;;;;;;;284.80;108.97;;;;;;;-0.78;100.00;101645.38;5052124;28;20059;-47
2022/12/04 06:01:15;;;;;;;291.08;109.40;;;;;;;-0.78;100.00;101638.66;5051315;28;20049;-47
2022/12/04 06:03:40;;;;;;;287.83;107.20;;;;;;;-0.79;100.00;101639.41;5052164;28;20039;-47
2022/12/04 06:06:26;;;;;;;301.15;111.47;;;;;;;-0.75;100.00;101644.03;5052169;28;20107;-47
2022/12/04 06:08:56;;;;;;;298.50;110.18;;;;;;;-0.79;100.00;101638.53;5050782;28;20454;-47
2022/12/04 06:11:28;;;;;;;285.08;105.85;;;;;;;-0.77;100.00;101634.50;5052492;28;20021;-48
2022/12/04 06:13:55;;;;;;;296.30;109.30;;;;;;;-0.79;100.00;101628.41;5050998;28;20415;-46
2022/12/04 06:16:30;;;;;;;300.50;110.22;;;;;;;-0.78;100.00;101631.06;5052361;28;20029;-48
2022/12/04 06:19:01;;;;;;;298.10;111.53;;;;;;;-0.79;100.00;101636.88;5052100;28;20028;-49
2022/12/04 06:21:28;;;;;;;287.23;110.07;;;;;;;-0.80;100.00;101635.13;5051347;28;20103;-48
2022/12/04 06:23:54;;;;;;;295.42;111.32;;;;;;;-0.79;100.00;101636.00;5051861;28;20480;-47
2022/12/04 06:26:20;;;;;;;291.23;110.03;;;;;;;-0.81;100.00;101633.34;5056036;28;20025;-48
2022/12/04 06:28:46;;;;;;;288.17;108.10;;;;;;;-0.79;100.00;101636.00;5054678;28;20056;-47
2022/12/04 06:31:13;;;;;;;296.50;109.57;;;;;;;-0.80;100.00;101640.19;5056015;28;20080;-48
2022/12/04 06:33:39;;;;;;;295.83;109.05;;;;;;;-0.77;100.00;101644.63;5055640;28;20025;-47
2022/12/04 06:36:09;;;;;;;283.38;109.07;;;;;;;-0.78;100.00;101643.72;5054808;28;20025;-49
2022/12/04 06:38:34;;;;;;;284.00;107.10;;;;;;;-0.79;100.00;101636.88;5055358;28;20104;-49
2022/12/04 06:41:04;;;;;;;300.88;112.57;;;;;;;-0.80;100.00;101645.25;5056075;28;20583;-48
2022/12/04 06:43:30;;;;;;;285.65;109.20;;;;;;;-0.78;100.00;101646.25;5054933;28;20033;-48
2022/12/04 06:46:25;;;;;;;286.00;107.22;;;;;;;-0.73;100.00;101646.69;5055431;28;20040;-48
2022/12/04 06:48:50;;;;;;;286.92;108.60;;;;;;;-0.78;100.00;101638.66;5053968;28;20055;-48
2022/12/04 06:51:21;;;;;;;281.15;107.32;;;;;;;-0.77;100.00;101639.56;5055331;28;20029;-47
2022/12/04 06:53:47;;;;;;;278.73;106.28;;;;;;;-0.79;100.00;101649.53;5055119;28;20108;-44
2022/12/04 06:56:16;;;;;;;289.48;110.38;;;;;;;-0.78;100.00;101653.84;5054544;28;20102;-48
2022/12/04 06:58:43;;;;;;;272.20;104.05;;;;;;;-0.77;100.00;101650.56;5055087;28;20098;-47
2022/12/04 07:01:13;;;;;;;283.35;108.32;;;;;;;-0.79;100.00;101649.53;5055107;28;20036;-47
2022/12/04 07:03:38;;;;;;;274.02;106.00;;;;;;;-0.77;100.00;101659.81;5054089;28;20476;-49
2022/12/04 07:06:19;;;;;;;281.85;107.03;;;;;;;-0.74;100.00;101655.03;5055098;28;20036;-48
2022/12/04 07:08:47;;;;;;;261.00;102.53;;;;;;;-0.77;100.00;101654.75;5054974;28;20029;-47
2022/12/04 07:11:13;;;;;;;;;;;;;;;-0.65;100.00;101665.94;5054717;28;20029;-49
2022/12/04 07:13:38;;;;;;;288.92;106.78;;;;;;;-0.75;100.00;101661.75;5054614;28;19919;-48
2022/12/04 07:16:05;;;;;;;279.17;107.25;;;;;;;-0.75;100.00;101669.31;5054949;28;20491;-48
2022/12/04 07:18:32;;;;;;;273.20;102.55;;;;;;;-0.74;100.00;101671.09;5053945;28;20029;-49
2022/12/04 07:20:58;;;;;;;272.67;102.00;;;;;;;-0.72;100.00;101668.72;5054947;28;20033;-48
2022/12/04 07:23:23;;;;;;;271.45;100.75;;;;;;;-0.73;100.00;101672.00;5054836;28;20029;-48
2022/12/04 07:25:49;;;;;;;267.17;99.90;;;;;;;-0.73;100.00;101672.88;5053601;28;20079;-48
2022/12/04 07:28:14;;;;;;;260.05;99.50;;;;;;;-0.72;100.00;101678.84;5054709;28;20021;-46
2022/12/04 07:30:40;;;;;;;255.68;99.80;;;;;;;-0.71;100.00;101681.50;5054504;28;20053;-46
2022/12/04 07:33:05;;;;;;;250.27;95.10;;;;;;;-0.71;100.00;101685.66;5053710;28;20400;-49
2022/12/04 07:35:30;;;;;;;238.35;94.80;;;;;;;-0.70;100.00;101677.31;5053956;28;20041;-45
2022/12/04 07:37:56;;;;;;;255.63;96.10;;;;;;;-0.72;100.00;101679.72;5054019;28;20387;-48
2022/12/04 07:40:21;;;;;;;258.58;97.63;;;;;;;-0.70;100.00;101674.78;5053776;28;20029;-48
2022/12/04 07:42:46;;;;;;;254.02;97.90;;;;;;;-0.70;100.00;101678.22;5054077;28;20465;-48
2022/12/04 07:45:12;;;;;;;238.90;94.47;;;;;;;-0.70;100.00;101678.22;5053358;28;20120;-48
2022/12/04 07:47:37;;;;;;;247.25;97.97;;;;;;;-0.70;100.00;101675.69;5053843;28;20028;-49
2022/12/04 07:50:04;;;;;;;245.02;95.35;;;;;;;-0.69;100.00;101674.03;5054504;28;20029;-47
2022/12/04 07:52:30;;;;;;;242.35;95.55;;;;;;;-0.65;100.00;101680.25;5053317;28;20029;-48
2022/12/04 07:54:56;;;;;;;241.88;93.30;;;;;;;-0.64;100.00;101684.56;5054057;28;20031;-46
2022/12/04 07:57:21;;;;;;;238.35;92.32;;;;;;;-0.65;100.00;101683.66;5054110;28;20025;-47
2022/12/04 07:59:47;;;;;;;238.20;93.57;;;;;;;-0.62;100.00;101688.13;5052930;28;20047;-48
2022/12/04 08:02:12;;;;;;;244.18;92.38;;;;;;;-0.62;100.00;101691.56;5053804;28;20045;-47
2022/12/04 08:04:37;;;;;;;240.32;94.60;;;;;;;-0.61;100.00;101694.97;5053747;28;20021;-47
2022/12/04 08:07:03;;;;;;;266.63;106.32;;;;;;;-0.60;100.00;101689.16;5053504;28;20035;-47
2022/12/04 08:09:28;;;;;;;228.15;91.63;;;;;;;-0.57;100.00;101687.78;5053869;28;20025;-48
2022/12/04 08:11:53;;;;;;;232.75;89.68;;;;;;;-0.57;100.00;101689.41;5053482;28;20028;-48
2022/12/04 08:14:18;;;;;;;222.27;90.63;;;;;;;-0.54;100.00;101689.69;5053012;28;20036;-49
2022/12/04 08:16:44;;;;;;;219.45;87.28;;;;;;;-0.55;100.00;101691.31;5053207;28;20453;-48
2022/12/04 08:19:09;;;;;;;226.95;88.03;;;;;;;-0.53;100.00;101694.88;5053910;28;20028;-48
2022/12/04 08:21:34;;;;;;;234.50;89.80;;;;;;;-0.52;100.00;101693.22;5052715;28;20384;-49
2022/12/04 08:24:00;;;;;;;224.38;90.05;;;;;;;-0.50;100.00;101696.81;5053635;28;20033;-45
2022/12/04 08:26:28;;;;;;;221.90;87.20;;;;;;;-0.49;100.00;101703.66;5053695;28;20051;-44
2022/12/04 08:28:55;;;;;;;222.30;88.80;;;;;;;-0.47;100.00;101706.31;5052449;28;20055;-45
2022/12/04 08:31:23;;;;;;;218.15;87.35;;;;;;;-0.47;100.00;101697.06;5053372;28;20078;-44
2022/12/04 08:33:50;;;;;;;220.55;85.75;;;;;;;-0.43;100.00;101703.28;5052822;28;20401;-49
2022/12/04 08:36:18;;;;;;;218.63;84.97;;;;;;;-0.43;100.00;101711.75;5052657;28;20029;-48
2022/12/04 08:38:44;;;;;;;212.15;84.85;;;;;;;-0.40;100.00;101704.44;5053132;28;20055;-46
2022/12/04 08:41:12;;;;;;;218.43;87.07;;;;;;;-0.35;100.00;101704.84;5053462;28;20108;-47
2022/12/04 08:43:38;;;;;;;206.98;81.95;;;;;;;-0.33;100.00;101700.81;5052209;28;20057;-47
2022/12/04 08:46:06;;;;;;;211.68;83.38;;;;;;;-0.29;100.00;101692.72;5053659;28;20072;-47
2022/12/04 08:48:33;;;;;;;215.93;82.95;;;;;;;-0.27;100.00;101692.84;5052042;28;20033;-48
2022/12/04 08:50:59;;;;;;;219.82;87.25;;;;;;;-0.21;100.00;101685.78;5053010;28;20499;-49
2022/12/04 08:53:24;;;;;;;209.32;86.65;;;;;;;-0.18;100.00;101691.13;5053203;28;20025;-47
2022/12/04 08:55:51;;;;;;;206.27;84.22;;;;;;;-0.15;100.00;101680.38;5052002;28;20612;-48
2022/12/04 08:58:17;;;;;;;205.02;80.60;;;;;;;-0.09;100.00;101694.44;5052910;28;20033;-47
2022/12/04 09:00:42;;;;;;;197.77;77.35;;;;;;;-0.08;100.00;101685.19;5052560;28;20021;-48
2022/12/04 09:03:12;;;;;;;208.75;81.70;;;;;;;-0.02;100.00;101689.13;5051713;28;20045;-47
2022/12/04 09:05:37;;;;;;;201.50;83.43;;;;;;;0.04;100.00;101682.81;5052392;28;20127;-48
2022/12/04 09:08:02;;;;;;;205.13;83.15;;;;;;;0.04;100.00;101682.81;5053093;28;20119;-47
2022/12/04 09:10:28;;;;;;;194.90;81.18;;;;;;;0.08;100.00;101684.84;5052181;28;20472;-48
2022/12/04 09:12:53;;;;;;;202.73;80.45;;;;;;;0.12;100.00;101689.44;5052547;28;20021;-45
2022/12/04 09:15:18;;;;;;;199.77;80.13;;;;;;;0.15;100.00;101687.16;5052728;28;20029;-47
2022/12/04 09:17:43;;;;;;;193.82;74.72;;;;;;;0.17;100.00;101693.25;5051727;28;20473;-47
2022/12/04 09:20:09;;;;;;;199.30;76.63;;;;;;;0.16;100.00;101688.94;5052618;28;20021;-49
2022/12/04 09:22:35;;;;;;;188.50;76.55;;;;;;;0.20;100.00;101690.97;5052257;28;20029;-48
2022/12/04 09:25:00;;;;;;;189.18;78.88;;;;;;;0.24;100.00;101693.00;5052000;28;20075;-47
2022/12/04 09:27:26;;;;;;;195.90;76.93;;;;;;;0.20;100.00;101692.63;5052595;28;20020;-48
2022/12/04 09:29:51;;;;;;;184.60;71.45;;;;;;;0.27;100.00;101700.88;5052238;28;20443;-48
2022/12/04 09:32:17;;;;;;;188.52;76.28;;;;;;;0.31;100.00;101702.00;5052085;28;20075;-48
2022/12/04 09:34:42;;;;;;;190.13;74.30;;;;;;;0.29;100.00;101711.16;5052237;28;20024;-49
2022/12/04 09:37:07;;;;;;;182.50;72.53;;;;;;;0.25;99.51;101704.91;5052654;28;20032;-49
2022/12/04 09:39:33;;;;;;;181.07;69.32;;;;;;;0.25;99.22;101704.06;5051636;28;20025;-47
2022/12/04 09:42:09;;;;;;;184.15;71.93;;;;;;;0.20;99.37;101703.63;5052502;28;20025;-48
2022/12/04 09:44:46;;;;;;;154.35;63.72;;;;;;;0.12;98.72;101713.13;5052422;28;20108;-47
2022/12/04 09:47:21;;;;;;;159.77;65.13;;;;;;;0.09;99.21;101699.28;5052634;28;20045;-48
2022/12/04 09:49:58;;;;;;;152.95;62.30;;;;;;;0.06;100.00;101701.59;5052215;28;20039;-47
2022/12/04 09:52:41;;;;;;;164.70;65.25;;;;;;;0.03;99.85;101701.31;5051594;28;20112;-48
2022/12/04 09:55:19;;;;;;;161.18;64.65;;;;;;;0.02;99.55;101704.63;5052302;28;20378;-49
2022/12/04 09:57:48;;;;;;;166.30;64.30;;;;;;;0.00;99.50;101696.88;5052135;28;20033;-48
2022/12/04 10:00:17;;;;;;;161.63;64.97;;;;;;;-0.06;99.54;101699.75;5053710;28;20479;-48
2022/12/04 10:02:49;;;;;;;160.15;62.25;;;;;;;-0.09;99.17;101702.06;5055833;28;20049;-49
2022/12/04 10:05:18;;;;;;;150.77;63.00;;;;;;;-0.08;99.77;101708.91;5056514;28;20021;-48
2022/12/04 10:08:04;;;;;;;155.98;62.78;;;;;;;-0.07;99.46;101710.66;5055297;28;20038;-44
2022/12/04 10:10:41;;;;;;;157.88;65.65;;;;;;;-0.08;100.00;101710.53;5056241;28;20033;-44
2022/12/04 10:13:28;;;;;;;154.23;64.38;;;;;;;-0.05;99.87;101701.56;5055279;28;20035;-49
2022/12/04 10:16:13;;;;;;;172.07;65.30;;;;;;;-0.04;100.00;101708.41;5055677;28;20357;-48
2022/12/04 10:18:57;;;;;;;165.23;66.63;;;;;;;-0.02;100.00;101706.88;5055673;28;20389;-48
2022/12/04 10:21:38;;;;;;;156.20;63.55;;;;;;;-0.04;99.80;101703.34;5055150;28;20025;-46
2022/12/04 10:24:15;;;;;;;152.90;62.63;;;;;;;-0.07;100.00;101699.63;5055972;28;20536;-48
2022/12/04 10:26:44;;;;;;;157.27;63.58;;;;;;;-0.10;100.00;101695.19;5055625;28;20028;-49
2022/12/04 10:29:23;;;;;;;151.35;63.40;;;;;;;-0.13;100.00;101694.94;5055104;28;20029;-48
2022/12/04 10:31:52;;;;;;;160.23;64.38;;;;;;;-0.15;100.00;101696.44;5055509;28;20108;-48
2022/12/04 10:34:22;;;;;;;154.10;64.50;;;;;;;-0.16;100.00;101689.59;5054774;28;20029;-50
2022/12/04 10:36:53;;;;;;;144.95;63.67;;;;;;;-0.17;100.00;101697.94;5055567;28;20108;-49
2022/12/04 10:39:50;;;;;;;151.43;66.30;;;;;;;-0.17;100.00;101700.47;5055517;28;20490;-49
2022/12/04 10:42:18;;;;;;;153.73;66.38;;;;;;;-0.17;100.00;101697.94;5051579;28;20041;-47
2022/12/04 10:44:43;;;;;;;152.60;64.85;;;;;;;-0.15;100.00;101698.09;5055077;28;20040;-47
2022/12/04 10:47:11;;;;;;;154.85;63.50;;;;;;;-0.13;100.00;101702.56;5055737;28;20021;-47
2022/12/04 10:49:37;;;;;;;154.38;65.90;;;;;;;-0.14;100.00;101708.38;5054470;28;20029;-46
2022/12/04 10:52:04;;;;;;;154.05;68.32;;;;;;;-0.10;100.00;101700.25;5055309;28;20024;-48
2022/12/04 10:54:32;;;;;;;156.73;65.83;;;;;;;-0.10;100.00;101700.25;5055408;28;20025;-49
2022/12/04 10:57:02;;;;;;;155.43;65.03;;;;;;;-0.10;100.00;101700.25;5054356;28;20099;-49
2022/12/04 10:59:28;;;;;;;155.50;65.85;;;;;;;-0.10;100.00;101695.19;5055132;28;20440;-49
2022/12/04 11:02:19;;;;;;;163.27;68.38;;;;;;;-0.06;100.00;101692.16;5054845;28;20053;-49
2022/12/04 11:04:55;;;;;;;147.63;63.20;;;;;;;-0.09;100.00;101685.94;5054933;28;20029;-48
2022/12/04 11:07:25;;;;;;;148.15;63.78;;;;;;;-0.12;100.00;101685.69;5055125;28;20080;-48
2022/12/04 11:10:02;;;;;;;148.73;62.33;;;;;;;-0.12;100.00;101676.44;5053924;28;20241;-48
2022/12/04 11:12:27;;;;;;;138.25;61.90;;;;;;;-0.15;100.00;101671.09;5054016;28;20051;-47
2022/12/04 11:15:13;;;;;;;147.07;66.80;;;;;;;-0.09;100.00;101676.72;5054786;28;20401;-49
2022/12/04 11:17:38;;;;;;;144.45;61.58;;;;;;;-0.13;100.00;101673.78;5053612;28;20036;-48